Allemand, Louisiana
Current Conditions -  °F | °C
As of 4:50 PM on Saturday 25 Oct 2014 (Local Time) from KHUM Reporting Station
Clear Clear  
Wind Chill: 79°   Ceiling: Unl
Heat Index: 79°   Visibility: 7mi
Dew Point: 52°   Wind: 6mph
Humidity: 39%   Direction: 340°NNW
Pressure: 30.07"   Gusts: NA
Location:  29.5867°N, 90.8252°W
Report Text: KHUM 252150Z 34005KT 7SM SKC 26/11 A3007 RMK ATIS U VA RY36 DV
Loading
Personal Weather Stations






























Interactive Weather Map
Tropical Storm Tracking
New forecast layout! Learn more

10-Day Weather Forecast

Advertisements
Track Severe Weather on mobile